Time;durP1;ratioP1;P1;durP2;ratioP2;P2;SDS_P1;SDS_P2;PMS_P1;PMS_P2;Temp;Humidity;BMP_temperature;BMP_pressure;BME280_temperature;BME280_humidity;BME280_pressure;Samples;Min_cycle;Max_cycle;Signal;HPM_P1;HPM_P2
2021/04/20 00:00:43;;;;;;;9.10;4.63;;;4.80;99.90;;;5.66;100.00;98300.72;5049782;28;20465;-80
2021/04/20 00:03:10;;;;;;;8.63;4.30;;;4.80;99.90;;;5.59;100.00;98296.09;5055491;28;20461;-79
2021/04/20 00:05:39;;;;;;;7.67;5.10;;;4.70;99.90;;;5.69;100.00;98300.41;5053423;28;21086;-79
2021/04/20 00:08:07;;;;;;;6.73;5.13;;;4.80;99.90;;;5.59;100.00;98293.50;5057087;28;20473;-80
2021/04/20 00:10:35;;;;;;;8.30;4.20;;;4.70;99.90;;;5.68;100.00;98298.75;5058540;28;20457;-80
2021/04/20 00:13:04;;;;;;;6.93;4.60;;;4.80;99.90;;;5.55;100.00;98299.94;5057224;28;20853;-80
2021/04/20 00:15:34;;;;;;;9.03;4.43;;;4.70;99.90;;;5.41;100.00;98297.91;5061950;28;20457;-80
2021/04/20 00:18:07;;;;;;;11.27;4.63;;;4.50;99.90;;;5.42;100.00;98291.72;5054840;28;20465;-79
2021/04/20 00:20:36;;;;;;;6.47;4.57;;;4.50;99.90;;;5.45;100.00;98288.84;5054877;28;20480;-79
2021/04/20 00:23:06;;;;;;;6.70;4.70;;;4.50;99.90;;;5.46;100.00;98287.88;5056004;28;20915;-80
2021/04/20 00:25:35;;;;;;;5.77;4.60;;;4.60;99.90;;;5.18;100.00;98282.91;5057716;28;20538;-79
2021/04/20 00:28:04;;;;;;;6.90;4.63;;;4.30;99.90;;;5.03;100.00;98286.00;5053291;28;20486;-80
2021/04/20 00:30:31;;;;;;;9.17;4.60;;;4.10;99.90;;;5.07;100.00;98286.53;5060465;28;20995;-79
2021/04/20 00:32:59;;;;;;;8.20;4.47;;;4.10;99.90;;;5.23;100.00;98286.72;5056308;28;20469;-79
2021/04/20 00:35:27;;;;;;;6.80;4.67;;;4.30;99.90;;;5.28;100.00;98284.47;5056065;28;20587;-80
2021/04/20 00:37:54;;;;;;;5.07;4.00;;;4.40;99.90;;;5.37;100.00;98282.78;5055346;28;20464;-79
2021/04/20 00:40:23;;;;;;;7.20;4.03;;;4.50;99.90;;;5.26;100.00;98278.63;5041846;28;20463;-80
2021/04/20 00:42:53;;;;;;;5.60;4.33;;;4.40;99.90;;;5.28;100.00;98284.47;5052059;28;20549;-79
2021/04/20 00:45:24;;;;;;;5.43;3.97;;;4.40;99.90;;;5.19;100.00;98285.38;5060191;28;20988;-80
2021/04/20 00:47:52;;;;;;;6.43;4.40;;;4.30;99.90;;;5.20;100.00;98281.81;5053038;28;20519;-80
2021/04/20 00:50:25;;;;;;;6.67;3.90;;;4.30;99.90;;;5.13;100.00;98280.78;5050970;28;20503;-80
2021/04/20 00:52:53;;;;;;;8.33;4.50;;;4.20;99.90;;;5.01;100.00;98276.75;5059552;28;20486;-80
2021/04/20 00:55:22;;;;;;;4.23;3.70;;;4.10;99.90;;;5.05;100.00;98283.28;5056973;28;20464;-79
2021/04/20 00:57:49;;;;;;;6.20;3.93;;;4.20;99.90;;;5.04;100.00;98281.63;5051594;28;20460;-79
2021/04/20 01:00:21;;;;;;;5.37;4.00;;;4.30;99.90;;;4.98;100.00;98282.22;5053060;28;20517;-80
2021/04/20 01:02:50;;;;;;;5.27;3.80;;;4.10;99.90;;;4.98;100.00;98279.63;5059616;28;20456;-80
2021/04/20 01:05:25;;;;;;;9.13;4.20;;;4.10;99.90;;;4.86;100.00;98281.59;5060780;28;21050;-79
2021/04/20 01:07:58;;;;;;;5.00;4.03;;;4.00;99.90;;;4.84;100.00;98277.53;5056804;28;21002;-80
2021/04/20 01:10:28;;;;;;;10.03;4.57;;;4.00;99.90;;;4.86;100.00;98278.22;5054062;28;20461;-79
2021/04/20 01:12:57;;;;;;;8.10;3.90;;;3.90;99.90;;;4.84;100.00;98269.78;5054061;28;20974;-80
2021/04/20 01:15:25;;;;;;;4.70;3.70;;;4.00;99.90;;;4.77;100.00;98276.50;5057105;28;20984;-79
2021/04/20 01:17:52;;;;;;;5.03;3.67;;;4.00;99.90;;;4.73;100.00;98278.56;5055170;28;20495;-79
2021/04/20 01:20:21;;;;;;;7.17;4.43;;;3.90;99.90;;;4.78;100.00;98272.94;5053477;28;20477;-80
2021/04/20 01:22:52;;;;;;;5.90;4.10;;;3.90;99.90;;;4.76;100.00;98282.63;5055710;28;20465;-80
2021/04/20 01:25:20;;;;;;;5.73;4.00;;;3.90;99.90;;;4.73;100.00;98267.38;5052162;28;20512;-80
2021/04/20 01:27:48;;;;;;;6.33;3.73;;;3.80;99.90;;;4.63;100.00;98272.59;5054300;28;20457;-79
2021/04/20 01:30:17;;;;;;;5.20;3.67;;;3.70;99.90;;;4.62;100.00;98265.78;5054281;28;20530;-79
2021/04/20 01:32:44;;;;;;;4.70;3.33;;;3.80;99.90;;;4.57;100.00;98266.25;5058811;28;20467;-80
2021/04/20 01:35:15;;;;;;;4.93;3.97;;;3.70;99.90;;;4.64;100.00;98276.84;5056829;28;21030;-79
2021/04/20 01:37:43;;;;;;;5.07;4.20;;;3.80;99.90;;;4.66;100.00;98276.69;5057131;28;20456;-80
2021/04/20 01:40:12;;;;;;;5.27;4.10;;;3.70;99.90;;;4.65;100.00;98269.88;5055792;28;20469;-80
2021/04/20 01:42:40;;;;;;;5.20;3.70;;;3.70;99.90;;;4.45;100.00;98275.13;5052546;28;20484;-80
2021/04/20 01:45:10;;;;;;;5.07;3.90;;;3.50;99.90;;;4.40;100.00;98271.38;5055040;28;20472;-80
2021/04/20 01:47:37;;;;;;;5.53;3.90;;;3.50;99.90;;;4.36;100.00;98273.41;5052768;28;20453;-79
2021/04/20 01:50:07;;;;;;;7.80;4.17;;;3.50;99.90;;;4.24;100.00;98274.53;5051657;28;20461;-80
2021/04/20 01:52:34;;;;;;;6.63;3.50;;;3.30;99.90;;;4.23;100.00;98265.16;5052179;28;20444;-80
2021/04/20 01:55:02;;;;;;;7.93;4.10;;;3.30;99.90;;;4.24;100.00;98271.94;5055882;28;20476;-80
2021/04/20 01:57:32;;;;;;;7.10;3.87;;;3.40;99.90;;;4.18;100.00;98266.53;5058592;28;20447;-80
2021/04/20 02:00:02;;;;;;;6.03;4.53;;;3.30;99.90;;;4.11;100.00;98266.28;5063433;28;20987;-80
2021/04/20 02:02:29;;;;;;;6.63;4.60;;;3.20;99.90;;;4.11;100.00;98260.28;5053174;28;20461;-80
2021/04/20 02:04:57;;;;;;;5.50;4.20;;;3.20;99.90;;;4.09;100.00;98268.22;5057327;28;20472;-80
2021/04/20 02:07:24;;;;;;;6.10;4.23;;;3.20;99.90;;;3.93;100.00;98263.59;5057482;28;20495;-80
2021/04/20 02:09:53;;;;;;;7.73;4.93;;;3.00;99.90;;;4.10;100.00;98264.63;5064169;28;20465;-80
2021/04/20 02:12:20;;;;;;;5.40;3.63;;;3.20;99.90;;;4.13;100.00;98259.19;5062726;28;20530;-80
2021/04/20 02:14:48;;;;;;;5.13;3.50;;;3.20;99.90;;;4.15;100.00;98256.47;5055368;28;20473;-80
2021/04/20 02:17:18;;;;;;;6.07;4.27;;;3.20;99.90;;;4.00;100.00;98263.84;5061022;28;20457;-80
2021/04/20 02:19:47;;;;;;;7.17;4.10;;;3.10;99.90;;;4.00;100.00;98258.69;5065333;28;20540;-80
2021/04/20 02:22:15;;;;;;;6.40;3.80;;;3.10;99.90;;;4.07;100.00;98249.41;5054586;28;20744;-80
2021/04/20 02:24:43;;;;;;;5.00;3.90;;;3.20;99.90;;;4.07;100.00;98255.41;5052725;28;20487;-80
2021/04/20 02:27:12;;;;;;;9.60;4.20;;;3.10;99.90;;;4.07;100.00;98255.41;5052318;28;20503;-80
2021/04/20 02:29:40;;;;;;;7.83;4.93;;;3.20;99.90;;;4.07;100.00;98254.56;5055378;28;20452;-80
2021/04/20 02:32:08;;;;;;;10.03;3.80;;;3.20;99.90;;;4.05;100.00;98248.75;5054017;28;20957;-80
2021/04/20 02:34:36;;;;;;;5.10;3.90;;;3.20;99.90;;;3.94;100.00;98254.06;5052406;28;20461;-80
2021/04/20 02:37:04;;;;;;;7.37;3.67;;;3.00;99.90;;;3.78;100.00;98256.44;5056636;28;20532;-80
2021/04/20 02:39:32;;;;;;;5.20;4.00;;;2.80;99.90;;;3.79;100.00;98252.88;5047123;28;20537;-80
2021/04/20 02:42:00;;;;;;;6.00;3.63;;;2.90;99.90;;;3.89;100.00;98256.25;5050350;28;20469;-80
2021/04/20 02:44:29;;;;;;;5.77;3.63;;;3.00;99.90;;;3.89;100.00;98256.25;5052477;28;20965;-80
2021/04/20 02:47:00;;;;;;;10.73;4.93;;;3.00;99.90;;;3.87;100.00;98255.59;5062373;28;20491;-80
2021/04/20 02:49:28;;;;;;;5.67;3.90;;;3.00;99.90;;;3.78;100.00;98259.03;5051555;28;21122;-79
2021/04/20 02:52:12;;;;;;;5.43;3.40;;;2.90;99.90;;;3.66;100.00;98260.94;5060293;28;20475;-79
2021/04/20 02:54:40;;;;;;;8.97;4.60;;;2.70;99.90;;;3.62;100.00;98259.56;5051478;28;20579;-79
2021/04/20 02:57:09;;;;;;;6.00;4.53;;;2.70;99.90;;;3.54;100.00;98249.91;5054316;28;20437;-79
2021/04/20 02:59:38;;;;;;;5.30;4.20;;;2.60;99.90;;;3.63;100.00;98255.22;5059840;28;20851;-80
2021/04/20 03:02:07;;;;;;;7.03;4.10;;;2.70;99.90;;;3.65;100.00;98250.72;5056719;28;20465;-79
2021/04/20 03:04:35;;;;;;;21.93;4.20;;;2.80;99.90;;;3.64;100.00;98246.53;5063185;28;20535;-79
2021/04/20 03:07:03;;;;;;;7.33;4.43;;;2.70;99.90;;;3.65;100.00;98250.72;5066002;28;20535;-79
2021/04/20 03:09:33;;;;;;;7.13;4.20;;;2.80;99.90;;;3.53;100.00;98250.06;5065770;28;20460;-79
2021/04/20 03:12:01;;;;;;;7.17;4.80;;;2.60;99.90;;;3.50;100.00;98246.00;5059641;28;20972;-79
2021/04/20 03:14:29;;;;;;;7.17;4.33;;;2.60;99.90;;;3.42;100.00;98243.28;5057757;28;20851;-79
2021/04/20 03:16:57;;;;;;;6.00;4.03;;;2.50;99.90;;;3.46;100.00;98239.47;5067659;28;20442;-79
2021/04/20 03:19:25;;;;;;;5.70;3.90;;;2.60;99.90;;;3.43;100.00;98244.91;5068728;28;20468;-79
2021/04/20 03:21:53;;;;;;;8.00;4.40;;;2.50;99.90;;;3.45;100.00;98243.00;5064672;28;20475;-79
2021/04/20 03:25:27;;;;;;;9.77;4.60;;;2.60;99.90;;;3.45;100.00;98248.19;5064633;28;20834;-79
2021/04/20 03:27:58;;;;;;;7.63;4.30;;;2.60;99.90;;;3.44;100.00;98246.53;5011813;28;20522;-79
2021/04/20 03:30:30;;;;;;;5.77;4.50;;;2.50;99.90;;;3.48;100.00;98253.06;5052776;28;20567;-79
2021/04/20 03:33:11;;;;;;;7.80;5.00;;;2.60;99.90;;;3.41;100.00;98251.97;5058712;28;20464;-79
2021/04/20 03:35:58;;;;;;;6.27;4.20;;;2.50;99.90;;;3.33;100.00;98251.03;5057500;28;20468;-79
2021/04/20 03:38:35;;;;;;;6.67;3.93;;;2.40;99.90;;;3.34;100.00;98245.72;5055291;28;20799;-79
2021/04/20 03:41:12;;;;;;;6.50;4.43;;;2.40;99.90;;;3.38;100.00;98249.69;5057414;28;20468;-83
2021/04/20 03:43:44;;;;;;;6.20;4.13;;;2.50;99.90;;;3.37;100.00;98249.78;5062504;28;20475;-80
2021/04/20 03:46:20;;;;;;;8.40;5.20;;;2.50;99.90;;;3.24;100.00;98249.25;5054002;28;20500;-79
2021/04/20 03:48:55;;;;;;;6.77;4.40;;;2.30;99.90;;;3.11;100.00;98246.97;5058917;28;20460;-80
2021/04/20 03:51:29;;;;;;;7.73;4.20;;;2.20;99.90;;;3.24;100.00;98242.34;5050792;28;20491;-80
2021/04/20 03:54:03;;;;;;;7.20;4.63;;;2.40;99.90;;;3.34;100.00;98245.72;5050530;28;20465;-79
2021/04/20 03:56:33;;;;;;;6.70;4.60;;;2.50;99.90;;;3.21;100.00;98245.19;5053624;28;20463;-80
2021/04/20 03:59:04;;;;;;;7.43;4.70;;;2.30;99.90;;;3.15;100.00;98248.31;5057477;28;20475;-80
2021/04/20 04:01:40;;;;;;;7.53;4.57;;;2.20;99.90;;;3.27;100.00;98242.06;5059253;28;20463;-89
2021/04/20 04:04:11;;;;;;;9.70;4.80;;;2.50;99.90;;;3.26;100.00;98245.63;5050754;28;20467;-80
2021/04/20 04:06:42;;;;;;;9.10;5.57;;;2.40;99.90;;;3.15;100.00;98245.75;5056227;28;20489;-80
2021/04/20 04:09:11;;;;;;;8.77;5.00;;;2.30;99.90;;;3.04;100.00;98243.28;5052953;28;20873;-80
2021/04/20 04:11:48;;;;;;;7.43;4.70;;;2.20;99.90;;;3.13;100.00;98239.06;5058899;28;20880;-80
2021/04/20 04:14:20;;;;;;;9.60;5.60;;;2.20;99.90;;;2.95;100.00;98233.78;5061962;28;20449;-80
2021/04/20 04:16:50;;;;;;;7.23;4.73;;;2.10;99.90;;;3.03;100.00;98244.22;5054000;28;20456;-88
2021/04/20 04:19:20;;;;;;;10.27;5.30;;;2.10;99.90;;;2.99;100.00;98235.94;5044391;28;20534;-80
2021/04/20 04:21:57;;;;;;;11.60;4.77;;;2.20;99.90;;;2.87;100.00;98238.78;5046971;28;20457;-80
2021/04/20 04:24:32;;;;;;;7.37;4.63;;;1.90;99.90;;;2.93;100.00;98241.63;5053798;28;20506;-81
2021/04/20 04:27:05;;;;;;;8.00;5.03;;;2.00;99.90;;;2.96;100.00;98243.13;5056923;28;20924;-80
2021/04/20 04:29:35;;;;;;;8.00;5.40;;;2.10;99.90;;;2.96;100.00;98240.53;5054659;28;20437;-80
2021/04/20 04:32:06;;;;;;;8.40;6.03;;;2.10;99.90;;;2.91;100.00;98243.56;5053233;28;20457;-80
2021/04/20 04:34:36;;;;;;;7.30;5.27;;;2.00;99.90;;;2.94;100.00;98242.47;5053030;28;20879;-79
2021/04/20 04:37:04;;;;;;;9.37;5.17;;;2.10;99.90;;;2.92;100.00;98244.34;5045521;28;20450;-79
2021/04/20 04:39:32;;;;;;;7.03;4.60;;;2.00;99.90;;;2.84;100.00;98241.63;5049562;28;20834;-79
2021/04/20 04:42:01;;;;;;;7.90;4.17;;;1.90;99.90;;;2.84;100.00;98242.47;5053273;28;20441;-79
2021/04/20 04:44:29;;;;;;;8.10;4.67;;;1.90;99.90;;;2.80;100.00;98237.69;5055886;28;20451;-79
2021/04/20 04:46:56;;;;;;;9.53;5.70;;;1.80;99.90;;;2.83;100.00;98247.75;5053955;28;20542;-79
2021/04/20 04:49:26;;;;;;;11.83;5.87;;;1.90;99.90;;;2.82;100.00;98248.69;5055288;28;20873;-80
2021/04/20 04:51:55;;;;;;;7.23;4.73;;;1.90;99.90;;;2.80;100.00;98248.81;5057298;28;20491;-79
2021/04/20 04:54:24;;;;;;;6.93;4.80;;;1.90;99.90;;;2.75;100.00;98242.41;5053479;28;21030;-80
2021/04/20 04:56:53;;;;;;;6.90;4.63;;;1.80;99.90;;;2.70;100.00;98245.41;5054208;28;20445;-79
2021/04/20 04:59:25;;;;;;;10.97;5.60;;;1.70;99.90;;;2.72;100.00;98245.25;5054518;28;20806;-79
2021/04/20 05:01:54;;;;;;;8.67;5.20;;;1.80;99.90;;;2.73;100.00;98246.91;5054369;28;20793;-80
2021/04/20 05:04:25;;;;;;;7.70;5.50;;;1.90;99.90;;;2.64;100.00;98245.13;5055471;28;20472;-79
2021/04/20 05:06:53;;;;;;;9.60;5.80;;;1.70;99.90;;;2.67;100.00;98250.84;5054405;28;20481;-79
2021/04/20 05:09:23;;;;;;;7.67;5.10;;;1.70;99.90;;;2.66;100.00;98248.38;5055045;28;20464;-80
2021/04/20 05:11:53;;;;;;;6.90;4.53;;;1.70;99.90;;;2.71;100.00;98261.72;5053092;28;20446;-80
2021/04/20 05:14:23;;;;;;;7.87;5.30;;;1.80;99.90;;;2.81;100.00;98254.81;5054760;28;20446;-80
2021/04/20 05:16:53;;;;;;;9.23;5.20;;;1.90;99.90;;;2.82;100.00;98254.66;5058210;28;20521;-79
2021/04/20 05:19:28;;;;;;;16.33;5.30;;;1.90;99.90;;;2.86;100.00;98255.22;5058896;28;20473;-79
2021/04/20 05:21:58;;;;;;;7.63;6.10;;;1.90;99.90;;;2.90;100.00;98260.00;5062315;28;20436;-80
2021/04/20 05:24:26;;;;;;;7.37;5.00;;;2.00;99.90;;;3.02;100.00;98260.66;5061849;28;20453;-79
2021/04/20 05:26:53;;;;;;;8.50;5.13;;;2.10;99.90;;;3.07;100.00;98252.53;5060248;28;20516;-79
2021/04/20 05:29:22;;;;;;;7.73;4.97;;;2.20;99.90;;;3.06;100.00;98254.28;5059220;28;20463;-80
2021/04/20 05:31:51;;;;;;;9.07;6.07;;;2.10;99.90;;;3.04;100.00;98258.78;5061052;28;20457;-79
2021/04/20 05:34:21;;;;;;;8.10;5.73;;;2.10;99.90;;;3.06;100.00;98251.69;5063660;28;20440;-79
2021/04/20 05:36:49;;;;;;;9.30;5.53;;;2.10;99.90;;;3.11;100.00;98261.63;5062501;28;20441;-80
2021/04/20 05:39:18;;;;;;;10.03;6.17;;;2.10;99.90;;;3.12;100.00;98256.34;5053815;28;20822;-79
2021/04/20 05:41:46;;;;;;;10.57;5.90;;;2.20;99.90;;;3.13;100.00;98257.97;5060973;28;20448;-79
2021/04/20 05:44:15;;;;;;;9.83;6.33;;;2.20;99.90;;;3.16;100.00;98257.69;5061792;28;20505;-80
2021/04/20 05:46:46;;;;;;;11.50;6.13;;;2.20;99.90;;;3.20;100.00;98253.06;5052396;28;20538;-80
2021/04/20 05:49:16;;;;;;;11.30;6.33;;;2.30;99.90;;;3.25;100.00;98251.72;5051680;28;20919;-80
2021/04/20 05:51:44;;;;;;;7.60;5.67;;;2.30;99.90;;;3.27;100.00;98249.00;5058916;28;20491;-79
2021/04/20 05:54:12;;;;;;;11.10;7.17;;;2.30;99.90;;;3.29;100.00;98257.44;5058082;28;20451;-80
2021/04/20 05:56:39;;;;;;;11.80;5.97;;;2.30;99.90;;;3.35;100.00;98255.13;5059543;28;20441;-80
2021/04/20 05:59:08;;;;;;;12.07;5.53;;;2.40;99.90;;;3.43;100.00;98250.09;5059718;28;20456;-80
2021/04/20 06:01:40;;;;;;;9.33;6.00;;;2.50;99.90;;;3.52;100.00;98251.84;5053620;28;20677;-80
2021/04/20 06:04:10;;;;;;;12.90;6.70;;;2.60;99.90;;;3.62;100.00;98253.59;5051291;28;20507;-80
2021/04/20 06:06:41;;;;;;;7.83;5.70;;;2.70;99.90;;;3.68;100.00;98256.44;5053304;28;20862;-80
2021/04/20 06:09:11;;;;;;;12.77;6.27;;;2.80;99.90;;;3.77;100.00;98254.81;5056632;28;20465;-80
2021/04/20 06:11:40;;;;;;;11.00;6.23;;;2.90;99.90;;;3.83;100.00;98252.47;5060167;28;20528;-80
2021/04/20 06:14:09;;;;;;;10.80;6.80;;;3.00;99.90;;;3.96;100.00;98252.16;5055768;28;20461;-79
2021/04/20 06:16:37;;;;;;;10.20;6.33;;;3.20;99.90;;;4.03;100.00;98248.88;5060676;28;20859;-80
2021/04/20 06:19:06;;;;;;;12.43;7.33;;;3.20;99.90;;;4.15;100.00;98251.28;5057753;28;20522;-80
2021/04/20 06:21:36;;;;;;;14.30;8.07;;;3.30;99.90;;;4.23;100.00;98254.00;5061288;28;20460;-79
2021/04/20 06:24:08;;;;;;;12.73;7.30;;;3.40;99.90;;;4.32;100.00;98253.13;5057794;28;20433;-80
2021/04/20 06:26:39;;;;;;;11.47;7.90;;;3.50;99.90;;;4.40;100.00;98251.47;5059227;28;20488;-79
2021/04/20 06:29:06;;;;;;;11.40;6.47;;;3.60;99.90;;;4.44;100.00;98247.63;5058288;28;20802;-79
2021/04/20 06:31:36;;;;;;;11.53;6.80;;;3.70;99.90;;;4.52;100.00;98250.31;5059234;28;20438;-79
2021/04/20 06:34:04;;;;;;;13.77;7.90;;;3.70;99.90;;;4.54;100.00;98251.00;5054335;28;20449;-80
2021/04/20 06:36:32;;;;;;;15.47;8.17;;;3.70;99.90;;;4.58;100.00;98249.72;5054376;28;20441;-80
2021/04/20 06:39:02;;;;;;;14.57;7.87;;;3.80;99.90;;;4.61;100.00;98251.25;5049015;28;20452;-80
2021/04/20 06:41:34;;;;;;;15.97;8.40;;;3.80;99.90;;;4.69;100.00;98246.13;5053376;28;20454;-80
2021/04/20 06:44:10;;;;;;;13.67;8.13;;;3.90;99.90;;;4.78;100.00;98247.88;5032585;28;655765;-80
2021/04/20 06:46:43;;;;;;;10.93;7.20;;;4.00;99.90;;;4.88;100.00;98255.56;5049450;28;20484;-80
2021/04/20 06:49:18;;;;;;;15.60;7.93;;;4.10;99.90;;;4.96;100.00;98242.72;5051225;28;20823;-80
2021/04/20 06:51:52;;;;;;;14.77;8.27;;;4.20;99.90;;;5.02;100.00;98247.28;5052454;28;20456;-80
2021/04/20 06:54:26;;;;;;;12.73;7.63;;;4.20;99.90;;;5.10;100.00;98249.97;5053453;28;20445;-80
2021/04/20 06:57:03;;;;;;;13.10;7.60;;;4.30;99.90;;;5.18;100.00;98247.44;5052869;28;20441;-79
2021/04/20 06:59:40;;;;;;;14.37;7.90;;;4.40;99.90;;;5.25;100.00;98245.88;5052634;28;20453;-79
2021/04/20 07:02:22;;;;;;;14.90;7.77;;;4.50;99.90;;;5.32;100.00;98246.91;5055617;28;20433;-79
2021/04/20 07:04:55;;;;;;;12.27;7.30;;;4.60;99.90;;;5.40;100.00;98247.00;5053066;28;20437;-80
2021/04/20 07:07:53;;;;;;;10.20;7.27;;;4.60;99.90;;;5.48;100.00;98239.25;5060116;28;20499;-80
2021/04/20 07:10:31;;;;;;;10.90;7.50;;;4.80;99.90;;;5.56;100.00;98241.94;5057196;28;20452;-79
2021/04/20 07:13:02;;;;;;;15.03;8.27;;;4.90;99.90;;;5.65;100.00;98244.59;5057775;28;20456;-80
2021/04/20 07:15:32;;;;;;;17.50;9.03;;;4.90;99.90;;;5.72;100.00;98230.06;5062945;28;20933;-79
2021/04/20 07:18:38;;;;;;;11.83;7.23;;;5.00;99.90;;;5.80;100.00;98233.50;5059705;28;20456;-80
2021/04/20 07:21:23;;;;;;;16.37;6.93;;;5.10;99.90;;;5.89;100.00;98237.00;5057305;28;20511;-80
2021/04/20 07:24:14;;;;;;;17.77;7.07;;;5.20;99.90;;;5.97;100.00;98229.28;5052745;28;20521;-80
2021/04/20 07:26:56;;;;;;;12.00;7.57;;;5.30;99.90;;;6.05;100.00;98230.13;5057096;28;20483;-80
2021/04/20 07:29:39;;;;;;;14.53;7.83;;;5.40;99.90;;;6.11;100.00;98228.69;5054697;28;21011;-80
2021/04/20 07:32:29;;;;;;;16.83;8.13;;;5.50;99.90;;;6.19;100.00;98223.53;5059422;28;20513;-80
2021/04/20 07:35:15;;;;;;;14.10;7.80;;;5.50;99.90;;;6.27;100.00;98225.38;5059074;28;20441;-79
2021/04/20 07:37:48;;;;;;;12.70;8.00;;;5.60;99.90;;;6.36;100.00;98222.66;5060820;28;20447;-80
2021/04/20 07:40:42;;;;;;;15.03;9.57;;;5.70;99.90;;;6.45;100.00;98224.31;5051732;28;20445;-80
2021/04/20 07:43:26;;;;;;;19.20;7.97;;;5.80;99.90;;;6.51;100.00;98223.69;5056874;28;20485;-80
2021/04/20 07:46:08;;;;;;;13.07;8.60;;;5.90;99.90;;;6.59;100.00;98220.31;5060233;28;20437;-80
2021/04/20 07:48:51;;;;;;;14.00;7.70;;;6.00;99.90;;;6.68;100.00;98223.75;5055087;28;20441;-80
2021/04/20 07:51:29;;;;;;;15.87;9.40;;;6.10;99.90;;;6.76;100.00;98219.38;5060132;28;20502;-80
2021/04/20 07:54:08;;;;;;;19.90;9.27;;;6.20;99.90;;;6.84;100.00;98218.56;5060978;28;20955;-80
2021/04/20 07:56:44;;;;;;;13.70;8.57;;;6.30;99.90;;;6.93;100.00;98217.63;5061516;28;20448;-80
2021/04/20 07:59:21;;;;;;;15.33;8.73;;;6.40;99.90;;;7.04;100.00;98217.34;5059867;28;20465;-80
2021/04/20 08:01:55;;;;;;;13.70;8.50;;;6.50;99.90;;;7.19;100.00;98222.69;5054419;28;20461;-80
2021/04/20 08:04:46;;;;;;;17.47;9.30;;;6.80;99.90;;;7.36;100.00;98219.13;5052462;28;21033;-80
2021/04/20 08:07:25;;;;;;;15.63;9.70;;;6.90;99.90;;;7.51;100.00;98215.72;5063251;28;20542;-80
2021/04/20 08:09:57;;;;;;;14.70;10.07;;;7.10;99.90;;;7.69;100.00;98219.94;5056616;28;20441;-80
2021/04/20 08:12:31;;;;;;;13.97;8.73;;;7.30;99.90;;;7.80;100.00;98214.41;5059072;28;20445;-80
2021/04/20 08:15:10;;;;;;;15.37;8.93;;;7.40;99.90;;;8.00;100.00;98213.06;5059196;28;20446;-80
2021/04/20 08:17:47;;;;;;;15.70;9.47;;;7.60;99.90;;;8.17;100.00;98209.44;5055661;28;20449;-81
2021/04/20 08:20:21;;;;;;;12.93;7.30;;;7.80;99.90;;;8.34;100.00;98212.81;5060643;28;20464;-80
2021/04/20 08:22:52;;;;;;;12.23;8.50;;;8.00;99.90;;;8.47;100.00;98207.88;5054398;28;20949;-80
2021/04/20 08:25:27;;;;;;;14.93;8.03;;;8.10;99.90;;;8.56;100.00;98199.88;5063878;28;20498;-80
2021/04/20 08:28:04;;;;;;;13.27;7.43;;;8.20;99.90;;;8.69;100.00;98198.47;5057489;28;20515;-80
2021/04/20 08:30:43;;;;;;;17.23;9.00;;;8.30;99.90;;;8.79;100.00;98201.69;5053031;28;20449;-81
2021/04/20 08:33:18;;;;;;;15.70;9.77;;;8.40;99.90;;;8.89;100.00;98200.47;5056635;28;20449;-80
2021/04/20 08:35:51;;;;;;;15.30;9.20;;;8.50;99.90;;;8.96;100.00;98198.81;5044814;28;20953;-80
2021/04/20 08:38:47;;;;;;;18.23;11.60;;;8.60;99.90;;;9.10;100.00;98198.06;5056655;28;20465;-80
2021/04/20 08:41:24;;;;;;;17.23;9.63;;;8.70;99.90;;;9.19;100.00;98195.41;5052035;28;20809;-80
2021/04/20 08:44:14;;;;;;;18.47;11.63;;;8.80;99.90;;;9.26;100.00;98189.31;5054134;28;20828;-81
2021/04/20 08:46:55;;;;;;;19.20;10.23;;;8.90;99.90;;;9.35;100.00;98190.88;5052039;28;20535;-80
2021/04/20 08:49:42;;;;;;;16.63;10.30;;;9.00;99.90;;;9.45;100.00;98195.84;5053541;28;21003;-81
2021/04/20 08:52:52;;;;;;;14.50;8.90;;;9.10;99.90;;;9.54;100.00;98192.97;5054951;28;20463;-80
2021/04/20 08:55:37;;;;;;;17.03;9.07;;;9.20;99.90;;;9.59;100.00;98190.66;5047592;28;20442;-81
2021/04/20 08:58:39;;;;;;;12.03;7.87;;;9.20;99.90;;;9.68;100.00;98196.63;5055096;28;20515;-81
2021/04/20 09:01:24;;;;;;;13.20;7.20;;;9.30;99.90;;;9.77;100.00;98194.75;5053698;28;20499;-80
2021/04/20 09:04:14;;;;;;;13.83;7.77;;;9.40;99.90;;;9.82;100.00;98192.41;5054022;28;20551;-81
2021/04/20 09:06:53;;;;;;;13.97;7.97;;;9.40;99.90;;;9.89;100.00;98191.50;5047036;28;20854;-81
2021/04/20 09:09:24;;;;;;;10.90;6.60;;;9.50;99.90;;;9.93;100.00;98184.94;5054570;28;20514;-81
2021/04/20 09:12:02;;;;;;;11.77;7.80;;;9.50;99.90;;;10.02;100.00;98198.75;5051580;28;20453;-81
2021/04/20 09:14:36;;;;;;;12.80;8.10;;;9.60;99.90;;;10.06;100.00;98200.00;5056642;28;20499;-81
2021/04/20 09:17:09;;;;;;;12.73;7.77;;;9.60;99.90;;;10.11;100.00;98202.88;5059181;28;20474;-81
2021/04/20 09:19:46;;;;;;;12.30;8.00;;;9.70;99.90;;;10.12;100.00;98194.06;5055523;28;20444;-80
2021/04/20 09:22:25;;;;;;;11.30;7.70;;;9.70;99.90;;;10.16;100.00;98192.72;5064260;28;20458;-81
2021/04/20 09:25:06;;;;;;;9.33;6.97;;;9.70;99.90;;;10.22;100.00;98189.38;5063988;28;20448;-81
2021/04/20 09:27:45;;;;;;;9.87;6.87;;;9.80;99.90;;;10.24;100.00;98187.41;5056327;28;20492;-81
2021/04/20 09:30:18;;;;;;;8.57;6.03;;;9.80;99.90;;;10.33;100.00;98185.50;5056484;28;20453;-81
2021/04/20 09:32:52;;;;;;;10.90;6.57;;;10.00;99.90;;;10.48;100.00;98181.09;5060420;28;20921;-80
2021/04/20 09:35:24;;;;;;;9.97;6.50;;;10.20;99.90;;;10.55;100.00;98180.16;5057673;28;20535;-81
2021/04/20 09:37:54;;;;;;;9.03;4.77;;;10.20;99.90;;;10.63;100.00;98179.22;5059353;28;20456;-80
2021/04/20 09:40:25;;;;;;;6.90;5.37;;;10.20;99.90;;;10.72;100.00;98172.91;5058911;28;20444;-81
2021/04/20 09:43:04;;;;;;;9.53;5.80;;;10.30;99.90;;;10.81;99.69;98173.59;5053059;28;20473;-81
2021/04/20 09:45:39;;;;;;;9.30;5.47;;;10.40;99.90;;;10.91;99.01;98187.19;5056998;28;20444;-80
2021/04/20 09:48:28;;;;;;;12.73;6.57;;;10.40;99.90;;;11.01;97.65;98188.50;5053592;28;20485;-80
2021/04/20 09:51:09;;;;;;;8.23;5.70;;;10.60;99.90;;;11.10;94.23;98186.59;5062485;28;20810;-81
2021/04/20 09:53:55;;;;;;;7.73;5.47;;;10.70;99.90;;;11.19;94.88;98185.47;5055353;28;20441;-81
2021/04/20 09:56:34;;;;;;;13.73;6.23;;;10.70;99.90;;;11.24;94.02;98179.66;5056917;28;20477;-81
2021/04/20 09:59:07;;;;;;;8.27;5.97;;;10.80;99.90;;;11.30;93.24;98190.19;5057806;28;20444;-81
2021/04/20 10:01:56;;;;;;;10.57;7.03;;;10.90;99.90;;;11.38;92.26;98192.69;5050984;28;20902;-81
2021/04/20 10:04:48;;;;;;;13.20;6.17;;;11.00;99.90;;;11.44;92.17;98188.50;5051386;28;20472;-81
2021/04/20 10:07:38;;;;;;;7.33;5.37;;;11.00;99.90;;;11.49;91.41;98189.53;5056014;28;20489;-80
2021/04/20 10:10:17;;;;;;;7.50;5.40;;;11.10;99.90;;;11.55;90.93;98193.22;5056573;28;20480;-80
2021/04/20 10:13:12;;;;;;;6.97;4.77;;;11.20;99.90;;;11.60;90.13;98186.41;5050422;28;20965;-81
2021/04/20 10:15:47;;;;;;;9.13;5.17;;;11.20;99.90;;;11.68;88.94;98185.47;5060220;28;20441;-81
2021/04/20 10:18:26;;;;;;;6.03;4.23;;;11.30;99.90;;;11.70;88.41;98182.69;5057475;28;20990;-80
2021/04/20 10:21:07;;;;;;;6.73;5.00;;;11.30;99.90;;;11.75;88.45;98180.31;5055018;28;20476;-81
2021/04/20 10:23:50;;;;;;;8.03;5.00;;;11.30;99.90;;;11.77;87.76;98175.69;5057965;28;20448;-81
2021/04/20 10:26:30;;;;;;;8.23;4.90;;;11.40;99.90;;;11.78;87.44;98166.81;5051911;28;20451;-80
2021/04/20 10:29:10;;;;;;;8.00;5.00;;;11.30;99.90;;;11.79;87.43;98171.06;5052512;28;20873;-81
2021/04/20 10:31:50;;;;;;;7.77;5.10;;;11.30;99.90;;;11.85;86.79;98157.19;5058091;28;20932;-80
2021/04/20 10:34:20;;;;;;;6.60;5.33;;;11.40;99.90;;;11.91;85.91;98159.84;5058587;28;20444;-81
2021/04/20 10:36:54;;;;;;;6.53;4.53;;;11.50;99.90;;;11.97;85.63;98156.47;5056773;28;20445;-81
2021/04/20 10:39:29;;;;;;;7.57;4.50;;;11.50;99.90;;;12.06;84.83;98154.50;5058043;28;20551;-80
2021/04/20 10:41:58;;;;;;;5.13;4.13;;;11.70;99.90;;;12.11;82.69;98152.13;5054979;28;20445;-81
2021/04/20 10:44:31;;;;;;;11.53;4.43;;;11.70;99.30;;;12.18;81.59;98145.09;5059964;28;20441;-80
2021/04/20 10:47:01;;;;;;;11.43;4.60;;;11.80;99.10;;;12.24;81.66;98146.94;5057313;28;20845;-81
2021/04/20 10:49:31;;;;;;;6.80;4.30;;;11.80;99.10;;;12.29;80.09;98138.47;5058540;28;20452;-81